createdAt,value
2023-02-20T06:45:27.799Z,1377.00
2023-02-20T06:46:27.861Z,1384.00
2023-02-20T06:47:27.857Z,1335.00
2023-02-20T06:48:27.867Z,1102.00
2023-02-20T06:49:27.990Z,1038.00
2023-02-20T06:50:27.975Z,1199.00
2023-02-20T06:51:28.019Z,1026.00
2023-02-20T06:52:28.094Z,901.00
2023-02-20T06:53:28.125Z,703.00
2023-02-20T06:54:28.180Z,675.00
2023-02-20T06:55:28.197Z,655.00
2023-02-20T06:56:29.262Z,657.00
2023-02-20T06:57:28.183Z,662.00
2023-02-20T06:58:28.176Z,650.00
2023-02-20T06:59:28.172Z,656.00
2023-02-20T07:00:28.157Z,623.00
2023-02-20T07:01:28.155Z,727.00
2023-02-20T07:02:28.141Z,903.00
2023-02-20T07:03:28.140Z,1005.00
2023-02-20T07:04:28.188Z,1096.00
2023-02-20T07:05:28.126Z,1142.00
2023-02-20T07:06:28.124Z,1196.00
2023-02-20T07:07:28.102Z,1239.00
2023-02-20T07:08:28.602Z,1277.00
2023-02-20T07:09:28.129Z,1303.00
2023-02-20T07:10:28.159Z,1336.00
2023-02-20T07:11:28.206Z,1371.00
2023-02-20T07:12:28.232Z,1405.00
2023-02-20T07:13:28.276Z,1433.00
2023-02-20T07:14:28.292Z,1458.00
2023-02-20T07:15:28.295Z,1495.00
2023-02-20T07:16:28.317Z,1530.00
2023-02-20T07:17:28.318Z,1549.00
2023-02-20T07:18:28.336Z,1584.00
2023-02-20T07:19:28.336Z,1607.00
2023-02-20T07:20:28.335Z,1633.00
2023-02-20T07:21:29.213Z,1654.00
2023-02-20T07:22:28.340Z,1676.00
2023-02-20T07:23:28.339Z,1712.00
2023-02-20T07:24:28.357Z,1705.00
2023-02-20T07:25:28.444Z,1736.00
2023-02-20T07:26:28.424Z,1752.00
2023-02-20T07:27:29.193Z,1553.00
2023-02-20T08:06:29.528Z,749.00
2023-02-20T09:07:29.731Z,1667.00
2023-02-20T09:08:29.713Z,1657.00
2023-02-20T09:09:29.713Z,1693.00
2023-02-20T09:10:29.698Z,1653.00
2023-02-20T09:11:29.709Z,1644.00
2023-02-20T09:12:29.693Z,1726.00
2023-02-20T09:13:29.774Z,1734.00
2023-02-20T09:14:29.681Z,1769.00
2023-02-20T09:15:29.681Z,1847.00
2023-02-20T09:16:29.712Z,1779.00
2023-02-20T09:17:29.709Z,1749.00
2023-02-20T09:18:29.704Z,1599.00
2023-02-20T09:19:29.740Z,1212.00
2023-02-20T09:20:29.743Z,1089.00
2023-02-20T09:21:30.725Z,1213.00
2023-02-20T09:22:29.808Z,1248.00
2023-02-20T09:23:29.827Z,1400.00
2023-02-20T09:24:29.849Z,1432.00
2023-02-20T09:26:29.896Z,1527.00
2023-02-20T09:28:29.943Z,1188.00
2023-02-20T09:29:29.989Z,1151.00
2023-02-20T09:30:30.065Z,1103.00
2023-02-20T09:31:30.117Z,928.00
2023-02-20T09:32:30.241Z,847.00
2023-02-20T09:33:30.106Z,686.00
2023-02-20T09:34:30.153Z,765.00
2023-02-20T09:35:30.212Z,955.00
2023-02-20T09:36:30.248Z,1110.00
2023-02-20T10:00:31.186Z,2379.00
2023-02-20T14:06:36.492Z,1883.00
2023-02-20T14:07:36.259Z,1879.00
2023-02-20T14:08:36.282Z,1880.00
2023-02-20T14:10:36.347Z,1881.00
2023-02-20T14:11:36.384Z,1884.00
2023-02-20T14:12:36.427Z,1882.00
2023-02-20T14:13:40.475Z,1893.00
2023-02-20T14:14:36.470Z,1894.00
2023-02-20T14:15:36.440Z,1894.00
2023-02-20T14:16:36.454Z,1894.00
2023-02-20T14:17:36.431Z,1896.00
2023-02-20T14:18:36.421Z,1895.00
2023-02-20T14:19:36.417Z,1891.00
2023-02-20T14:20:36.477Z,1891.00
2023-02-20T14:21:36.432Z,1886.00
2023-02-20T14:22:36.394Z,1876.00
2023-02-20T14:23:36.391Z,1883.00
2023-02-20T14:24:36.401Z,1880.00
2023-02-20T14:25:36.376Z,1880.00
2023-02-20T14:26:36.366Z,1881.00
2023-02-20T14:27:36.370Z,1882.00
2023-02-20T14:28:36.362Z,1882.00
2023-02-20T14:29:36.349Z,1883.00
2023-02-20T14:30:36.409Z,1885.00
2023-02-20T14:31:36.442Z,1878.00
2023-02-20T14:32:36.884Z,1872.00
2023-02-20T14:33:36.325Z,1872.00
2023-02-20T14:34:36.346Z,1862.00
2023-02-20T14:35:36.306Z,1855.00
2023-02-20T14:36:36.303Z,1843.00
2023-02-20T14:37:36.302Z,1851.00
2023-02-20T14:38:36.318Z,1855.00
2023-02-20T14:39:36.286Z,1853.00
2023-02-20T14:40:36.276Z,1853.00
2023-02-20T14:41:36.274Z,1854.00
2023-02-20T14:42:36.285Z,1857.00
2023-02-20T14:43:36.849Z,1859.00
2023-02-20T14:44:36.253Z,1851.00
2023-02-20T14:45:37.778Z,1852.00
2023-02-20T14:46:36.274Z,1854.00
2023-02-20T15:03:36.270Z,1786.00
2023-02-20T15:04:36.313Z,1791.00
2023-02-20T15:05:36.363Z,1789.00
2023-02-20T15:06:36.405Z,1800.00
2023-02-20T15:07:36.433Z,1791.00
2023-02-20T15:08:36.506Z,1793.00
2023-02-20T15:09:36.510Z,1787.00
2023-02-20T15:10:36.540Z,1795.00
2023-02-20T15:11:37.280Z,1803.00
2023-02-20T15:12:37.364Z,1785.00
2023-02-20T15:13:36.642Z,1783.00
2023-02-20T15:14:36.671Z,1790.00
2023-02-20T15:15:36.865Z,1788.00
2023-02-20T15:16:36.768Z,1779.00
2023-02-20T15:17:36.784Z,1777.00
2023-02-20T15:18:36.815Z,1771.00
2023-02-20T15:19:36.848Z,1767.00
2023-02-20T15:20:36.870Z,1759.00
2023-02-20T15:21:36.927Z,1756.00
2023-02-20T15:22:36.957Z,1748.00
2023-02-20T15:23:36.990Z,1749.00
2023-02-20T15:24:37.043Z,1751.00
2023-02-20T15:25:37.049Z,1750.00
2023-02-20T16:09:38.999Z,1709.00
2023-02-20T16:10:39.024Z,1709.00
2023-02-20T16:11:39.083Z,1702.00
2023-02-20T16:12:39.189Z,1703.00
2023-02-20T16:13:39.193Z,1703.00
2023-02-20T16:14:39.258Z,1698.00
2023-02-20T16:15:39.325Z,1710.00
2023-02-20T16:16:39.460Z,1701.00
2023-02-20T16:17:39.356Z,1705.00
2023-02-20T16:18:39.412Z,1690.00
2023-02-20T16:19:42.701Z,1695.00
2023-02-20T16:20:39.481Z,1711.00
2023-02-20T16:21:42.925Z,1691.00
2023-02-20T16:22:40.441Z,1693.00
2023-02-20T16:23:39.443Z,1695.00
2023-02-20T16:24:39.440Z,1680.00
2023-02-20T16:25:39.482Z,1683.00
2023-02-20T16:26:39.402Z,1688.00
2023-02-20T16:27:39.404Z,1687.00
2023-02-20T16:28:39.455Z,1686.00
2023-02-20T16:29:39.387Z,1683.00
2023-02-20T16:30:39.437Z,1684.00
2023-02-20T16:31:39.980Z,1681.00
2023-02-20T16:32:39.400Z,1673.00
2023-02-20T16:33:39.446Z,1677.00
2023-02-20T16:34:39.490Z,1679.00
2023-02-20T16:35:39.564Z,1668.00
2023-02-20T16:36:39.610Z,1665.00
2023-02-20T16:37:39.735Z,1661.00
2023-02-20T16:38:39.727Z,1642.00
2023-02-20T16:39:39.905Z,1645.00
2023-02-20T16:40:39.884Z,1663.00
2023-02-20T16:41:40.418Z,1654.00
2023-02-20T16:42:39.949Z,1656.00
2023-02-20T16:43:40.015Z,1657.00
2023-02-20T16:44:40.078Z,1650.00
2023-02-20T16:45:40.130Z,1654.00
2023-02-20T16:46:40.953Z,1652.00
2023-02-20T16:47:40.267Z,1653.00
2023-02-20T16:48:40.313Z,1648.00
2023-02-20T16:49:40.473Z,1648.00
2023-02-20T16:50:40.469Z,1641.00
2023-02-20T16:51:40.493Z,1642.00
2023-02-20T16:52:40.556Z,1631.00
2023-02-20T16:53:40.614Z,1636.00
2023-02-20T16:54:40.677Z,1625.00
2023-02-20T16:55:40.730Z,1632.00
2023-02-20T16:56:40.791Z,1611.00
2023-02-20T16:57:40.841Z,1612.00
2023-02-20T16:58:40.910Z,1621.00
2023-02-20T16:59:40.993Z,1625.00
2023-02-20T17:00:51.058Z,1625.00
2023-02-20T17:01:42.091Z,1626.00
2023-02-20T17:02:41.020Z,1627.00
2023-02-20T17:03:41.012Z,1626.00
2023-02-20T17:04:41.050Z,1626.00
2023-02-20T17:06:40.987Z,1622.00
2023-02-20T17:07:40.987Z,1609.00
2023-02-20T17:08:40.983Z,1606.00
2023-02-20T17:10:41.025Z,1587.00
2023-02-20T19:04:43.077Z,1360.00
2023-02-20T21:27:46.298Z,1193.00
2023-02-20T21:28:46.248Z,1190.00
2023-02-20T21:29:47.009Z,1186.00
2023-02-20T21:30:46.328Z,1193.00
2023-02-20T21:31:46.401Z,1186.00
2023-02-20T21:32:46.366Z,1196.00
2023-02-20T21:33:46.391Z,1187.00
2023-02-20T21:34:46.726Z,1209.00
2023-02-20T21:35:46.443Z,1197.00
2023-02-20T21:36:46.470Z,1200.00
2023-02-20T21:37:46.574Z,1199.00
2023-02-20T21:38:46.521Z,1180.00
2023-02-20T21:39:46.557Z,1185.00
2023-02-20T21:40:46.582Z,1166.00
2023-02-20T21:41:46.606Z,1190.00
2023-02-20T21:42:46.629Z,1192.00
2023-02-20T21:43:46.658Z,1173.00
2023-02-20T21:44:46.692Z,1167.00
2023-02-20T21:45:46.714Z,1186.00
2023-02-20T21:46:46.735Z,1182.00
2023-02-20T21:47:46.758Z,1181.00
2023-02-20T21:48:46.789Z,1181.00
2023-02-20T21:49:46.816Z,1176.00
2023-02-20T21:50:46.842Z,1179.00
2023-02-20T21:51:46.878Z,1182.00
2023-02-20T21:52:46.895Z,1187.00
2023-02-20T21:53:46.919Z,1182.00
2023-02-20T21:54:47.514Z,1176.00
2023-02-20T21:55:46.983Z,1187.00
2023-02-20T21:56:47.018Z,1175.00
2023-02-20T21:57:47.030Z,1159.00
2023-02-20T21:58:47.066Z,1163.00
2023-02-20T21:59:47.104Z,1162.00
2023-02-20T22:00:47.198Z,1178.00
2023-02-20T22:01:47.164Z,1176.00
2023-02-20T22:02:47.235Z,1175.00
2023-02-20T22:03:47.212Z,1180.00
2023-02-20T22:04:47.241Z,1181.00
2023-02-20T22:05:47.266Z,1174.00
2023-02-20T22:06:49.710Z,1177.00
2023-02-20T22:07:47.286Z,1163.00
2023-02-20T22:08:47.263Z,1154.00
2023-02-20T22:09:47.292Z,1118.00
2023-02-20T22:10:47.258Z,1102.00
2023-02-20T22:11:47.261Z,1116.00
2023-02-20T22:12:47.410Z,1122.00
2023-02-20T22:13:47.249Z,1120.00
2023-02-20T22:14:48.027Z,1117.00
2023-02-20T22:15:47.271Z,1127.00
2023-02-20T22:16:47.242Z,1126.00
2023-02-20T22:17:47.226Z,1130.00
2023-02-20T22:18:47.213Z,1140.00
2023-02-20T22:19:47.216Z,1135.00
2023-02-20T22:20:47.242Z,1145.00
2023-02-20T22:21:47.206Z,1139.00
2023-02-20T22:22:47.279Z,1149.00
2023-02-20T22:23:47.192Z,1140.00
2023-02-20T22:24:47.200Z,1139.00
2023-02-20T22:25:47.177Z,1135.00
2023-02-20T22:42:47.062Z,1124.00
2023-02-20T22:43:47.052Z,1136.00
2023-02-20T22:44:47.036Z,1132.00
2023-02-20T22:45:47.034Z,1130.00
2023-02-20T22:46:47.103Z,1127.00
2023-02-20T22:47:47.023Z,1135.00
2023-02-20T22:48:47.012Z,1136.00
2023-02-20T22:49:47.005Z,1133.00
2023-02-20T22:50:46.995Z,1125.00
2023-02-20T22:51:46.998Z,1127.00
2023-02-20T22:52:46.978Z,1127.00
2023-02-20T22:53:46.971Z,1128.00
2023-02-20T22:55:02.581Z,1130.00
2023-02-20T22:55:48.025Z,1131.00
2023-02-20T22:56:46.950Z,1131.00
2023-02-20T22:57:46.939Z,1131.00
2023-02-20T22:58:46.942Z,1139.00
2023-02-20T22:59:46.930Z,1121.00
2023-02-20T23:00:47.034Z,1121.00
2023-02-20T23:01:46.947Z,1126.00
2023-02-20T23:02:47.722Z,1131.00
2023-02-20T23:03:46.929Z,1120.00
2023-02-20T23:04:46.909Z,1129.00
2023-02-20T23:05:46.905Z,1120.00
2023-02-20T23:06:46.907Z,1116.00
2023-02-20T23:07:46.922Z,1128.00
2023-02-20T23:08:46.944Z,1112.00
2023-02-20T23:09:46.984Z,1119.00
2023-02-20T23:10:47.043Z,1100.00
2023-02-20T23:11:47.068Z,1108.00
2023-02-20T23:12:47.102Z,1110.00
2023-02-20T23:13:48.618Z,1105.00
2023-02-20T23:14:47.179Z,1104.00
2023-02-20T23:15:47.562Z,1105.00
2023-02-20T23:16:47.261Z,1104.00
2023-02-20T23:17:47.300Z,1107.00
2023-02-20T23:18:47.337Z,1103.00
2023-02-20T23:19:47.424Z,1096.00
2023-02-20T23:20:47.528Z,1088.00
2023-02-20T23:21:47.426Z,1098.00
2023-02-20T23:22:47.451Z,1103.00
2023-02-20T23:23:47.487Z,1097.00
2023-02-20T23:24:47.520Z,1094.00
2023-02-20T23:25:47.578Z,1098.00
2023-02-20T23:26:47.603Z,1081.00
2023-02-20T23:27:47.623Z,1093.00
2023-02-20T23:28:47.646Z,1094.00
2023-02-20T23:29:47.658Z,1094.00
2023-02-20T23:30:47.700Z,1088.00
2023-02-20T23:31:47.757Z,1091.00
2023-02-20T23:32:47.767Z,1071.00
2023-02-20T23:33:47.770Z,1060.00
2023-02-20T23:34:47.808Z,1058.00
2023-02-20T23:35:47.820Z,1070.00
2023-02-20T23:36:47.858Z,1081.00
2023-02-20T23:37:48.060Z,1063.00
2023-02-20T23:38:47.996Z,1064.00
2023-02-20T23:39:47.937Z,1062.00
2023-02-20T23:40:47.955Z,1077.00
2023-02-20T23:41:47.998Z,1072.00
2023-02-20T23:42:48.013Z,1075.00
2023-02-20T23:43:48.036Z,1034.00
2023-02-20T23:44:48.076Z,1024.00
2023-02-20T23:45:48.194Z,1024.00
2023-02-20T23:46:48.135Z,1017.00
2023-02-20T23:47:48.190Z,1014.00
2023-02-20T23:48:48.266Z,1005.00
2023-02-20T23:49:48.223Z,980.00
2023-02-20T23:50:48.246Z,984.00
2023-02-20T23:51:48.289Z,983.00
2023-02-20T23:52:48.337Z,993.00
2023-02-20T23:53:48.352Z,994.00
2023-02-20T23:54:48.372Z,996.00
2023-02-20T23:55:49.060Z,1008.00
2023-02-20T23:56:48.458Z,1000.00
2023-02-20T23:57:48.481Z,1004.00
2023-02-20T23:58:48.523Z,1000.00
2023-02-20T23:59:48.556Z,1002.00
